Chipolbrok Star — VRGU3 — position and weather

sailwx.info

Track history (hours):
 
Tides and Currents Weather Stations Pressure Air Temp Water Temp Dewpoint Dewpoint Depression Visibility Wind Speed Wind Dir Waves Ship Positions

Chipolbrok Star

Last reported at 2018-May-29 10:44 UTC. Time now 2018-Jun-25 14:16 UTC.
Position N 01°35' E 103°03'.
Warning: this ship's position is 27 days out of date.

Length 200 m; draft 9.5 m.

Type: Cargo ship. MMSI: 477748600.

Date/timePositionNaut miles runAvg speedWind from/ knotsBaromVisibWave heightAir tempDewpointWater temp
2018-May-29 10:44N 01°35' E 103°03'313.9
2018-May-29 10:30N 01°32' E 103°05'814.5
2018-May-29 09:56N 01°27' E 103°11'714.9
2018-May-29 09:30N 01°23' E 103°16'815.1
2018-May-29 09:00N 01°18' E 103°22'714.5
2018-May-29 08:31N 01°14' E 103°28'714.2
2018-May-29 08:00N 01°12' E 103°35'714.1
2018-May-29 07:30N 01°10' E 103°41'611.6
2018-May-29 07:00N 01°10' E 103°47'714.0
2018-May-29 06:30N 01°13' E 103°54'713.3
2018-May-29 06:00N 01°15' E 103°60'714.0
2018-May-29 05:30N 01°16' E 104°07'713.5
2018-May-29 05:00N 01°17' E 104°13'714.5
2018-May-29 04:30N 01°19' E 104°20'713.9
2018-May-29 03:59N 01°24' E 104°26'  
2018-May-24 05:41N 23°18' E 117°44'213.4
2018-May-24 05:30N 23°20' E 117°45'713.5
2018-May-24 04:59N 23°26' E 117°49'713.7
2018-May-24 04:30N 23°31' E 117°53'713.8
2018-May-24 03:57N 23°37' E 117°58'1514.0
2018-May-24 02:53N 23°47' E 118°10'1214.2
2018-May-24 02:01N 23°55' E 118°21'114.1
2018-May-24 01:58N 23°56' E 118°21'714.2
2018-May-24 01:30N 23°60' E 118°26'714.3
2018-May-24 01:00N 24°05' E 118°32'814.1
2018-May-24 00:28N 24°10' E 118°38'714.1
2018-May-23 23:59N 24°14' E 118°44'713.9
2018-May-23 23:29N 24°19' E 118°50'  
Track history (hours):
 
Tides and Currents Weather Stations Pressure Air Temp Water Temp Dewpoint Dewpoint Depression Visibility Wind Speed Wind Dir Waves Ship Positions

Chipolbrok Star

Last reported at 2018-May-29 10:44 UTC. Time now 2018-Jun-25 14:16 UTC.
Position N 01°35' E 103°03'.
Warning: this ship's position is 27 days out of date.

Length 200 m; draft 9.5 m.

Type: Cargo ship. MMSI: 477748600.

Date/timePositionNaut miles runAvg speedWind from/ knotsBaromVisibWave heightAir tempDewpointWater temp
2018-May-29 10:44N 01°35' E 103°03'313.9
2018-May-29 10:30N 01°32' E 103°05'814.5
2018-May-29 09:56N 01°27' E 103°11'714.9
2018-May-29 09:30N 01°23' E 103°16'815.1
2018-May-29 09:00N 01°18' E 103°22'714.5
2018-May-29 08:31N 01°14' E 103°28'714.2
2018-May-29 08:00N 01°12' E 103°35'714.1
2018-May-29 07:30N 01°10' E 103°41'611.6
2018-May-29 07:00N 01°10' E 103°47'714.0
2018-May-29 06:30N 01°13' E 103°54'713.3
2018-May-29 06:00N 01°15' E 103°60'714.0
2018-May-29 05:30N 01°16' E 104°07'713.5
2018-May-29 05:00N 01°17' E 104°13'714.5
2018-May-29 04:30N 01°19' E 104°20'713.9
2018-May-29 03:59N 01°24' E 104°26'  
2018-May-24 05:41N 23°18' E 117°44'213.4
2018-May-24 05:30N 23°20' E 117°45'713.5
2018-May-24 04:59N 23°26' E 117°49'713.7
2018-May-24 04:30N 23°31' E 117°53'713.8
2018-May-24 03:57N 23°37' E 117°58'1514.0
2018-May-24 02:53N 23°47' E 118°10'1214.2
2018-May-24 02:01N 23°55' E 118°21'114.1
2018-May-24 01:58N 23°56' E 118°21'714.2
2018-May-24 01:30N 23°60' E 118°26'714.3
2018-May-24 01:00N 24°05' E 118°32'814.1
2018-May-24 00:28N 24°10' E 118°38'714.1
2018-May-23 23:59N 24°14' E 118°44'713.9
2018-May-23 23:29N 24°19' E 118°50'  

Dump ship's entire track history